createdAt,value
2023-02-24T00:19:05.734Z,99333.81
2023-02-24T00:19:39.416Z,99362.91
2023-02-24T00:20:27.736Z,99354.94
2023-02-24T00:21:11.049Z,99367.16
2023-02-24T00:21:58.694Z,99365.19
2023-02-24T00:22:32.436Z,99354.34
2023-02-24T00:24:44.744Z,99358.78
2023-02-24T00:25:24.748Z,99345.91
2023-02-24T00:26:06.931Z,99356.88
2023-02-24T00:26:48.711Z,99350.47
2023-02-24T00:27:28.759Z,99355.94
2023-02-24T00:28:08.728Z,99349.44
2023-02-24T00:28:56.729Z,99349.94
2023-02-24T00:29:32.393Z,99338.44
2023-02-24T00:30:21.681Z,99358.34
2023-02-24T00:30:58.488Z,99348.31
2023-02-24T00:31:48.917Z,99355.50
2023-02-24T00:32:22.651Z,99355.72
2023-02-24T00:33:10.706Z,99350.34
2023-02-24T00:33:46.204Z,99345.69
2023-02-24T00:34:26.744Z,99324.31
2023-02-24T00:35:00.798Z,99334.97
2023-02-24T00:35:35.086Z,99355.03
2023-02-24T00:36:23.697Z,99356.88
2023-02-24T00:36:57.761Z,99352.41
2023-02-24T00:37:32.877Z,99348.09
2023-02-24T00:38:13.725Z,99340.16
2023-02-24T00:38:48.799Z,99350.00
2023-02-24T00:39:36.765Z,99349.78
2023-02-24T00:40:23.235Z,99325.78
2023-02-24T00:41:04.674Z,99330.47
2023-02-24T00:41:48.749Z,99351.94
2023-02-24T00:42:29.688Z,99346.47
2023-02-24T00:43:09.770Z,99325.31
2023-02-24T00:43:54.668Z,99336.72
2023-02-24T00:44:34.771Z,99345.06
2023-02-24T00:45:16.710Z,99333.25
2023-02-24T00:45:56.807Z,99346.13
2023-02-24T00:46:38.788Z,99330.16
2023-02-24T00:47:20.828Z,99334.75
2023-02-24T00:48:03.798Z,99351.84
2023-02-24T00:48:46.839Z,99332.63
2023-02-24T00:49:27.713Z,99333.34
2023-02-24T00:50:09.096Z,99324.91
2023-02-24T00:50:49.685Z,99326.72
2023-02-24T00:51:33.693Z,99334.75
2023-02-24T00:52:19.770Z,99331.09
2023-02-24T00:52:59.742Z,99328.50
2023-02-24T00:53:39.680Z,99316.22
2023-02-24T00:54:20.738Z,99313.50
2023-02-24T00:55:00.689Z,99321.25
2023-02-24T00:55:40.732Z,99333.81
2023-02-24T00:56:22.715Z,99325.63
2023-02-24T00:57:03.820Z,99331.34
2023-02-24T00:57:45.711Z,99314.97
2023-02-24T00:58:29.929Z,99300.59
2023-02-24T00:59:09.684Z,99305.56
2023-02-24T00:59:51.496Z,99333.97
2023-02-24T01:00:32.683Z,99297.19
2023-02-24T01:01:29.777Z,99324.00
2023-02-24T01:02:04.005Z,99310.13
2023-02-24T01:02:53.717Z,99322.38
2023-02-24T01:03:27.798Z,99332.97
2023-02-24T01:04:20.711Z,99307.81
2023-02-24T01:04:54.385Z,99321.94
2023-02-24T01:05:41.688Z,99316.22
2023-02-24T01:06:20.308Z,99319.84
2023-02-24T01:07:06.702Z,99326.03
2023-02-24T01:07:40.952Z,99318.53
2023-02-24T01:08:21.323Z,99295.84
2023-02-24T01:09:03.673Z,99282.13
2023-02-24T01:09:38.703Z,99316.75
2023-02-24T01:10:12.825Z,99294.25
2023-02-24T01:11:21.079Z,99318.28
2023-02-24T01:12:21.763Z,99320.53
2023-02-24T01:12:56.356Z,99315.97
2023-02-24T01:13:43.659Z,99289.53
2023-02-24T01:14:20.875Z,99293.63
2023-02-24T01:15:11.676Z,99308.50
2023-02-24T01:15:45.446Z,99299.03
2023-02-24T01:16:32.683Z,99294.25
2023-02-24T01:17:08.775Z,99300.22
2023-02-24T01:17:49.739Z,99289.81
2023-02-24T01:18:23.777Z,99303.41
2023-02-24T01:18:57.362Z,99287.13
2023-02-24T01:19:39.685Z,99281.72
2023-02-24T01:20:20.539Z,99296.47
2023-02-24T01:20:54.471Z,99292.28
2023-02-24T01:21:35.661Z,99298.03
2023-02-24T01:22:14.663Z,99295.72
2023-02-24T01:23:03.738Z,99301.84
2023-02-24T01:23:43.772Z,99299.72
2023-02-24T01:24:23.656Z,99293.84
2023-02-24T01:25:04.971Z,99304.94
2023-02-24T01:25:45.665Z,99270.69
2023-02-24T01:26:26.836Z,99295.84
2023-02-24T01:27:06.672Z,99283.34
2023-02-24T01:27:46.716Z,99286.16
2023-02-24T01:28:26.677Z,99296.94
2023-02-24T01:29:10.483Z,99288.97
2023-02-24T01:29:52.642Z,99288.53
2023-02-24T01:30:35.512Z,99292.38
2023-02-24T01:31:15.701Z,99280.03
2023-02-24T01:31:59.541Z,99290.53
2023-02-24T01:32:39.843Z,99288.34
2023-02-24T01:33:20.874Z,99283.38
2023-02-24T01:34:01.660Z,99271.34
2023-02-24T01:34:42.477Z,99277.41
2023-02-24T01:35:22.641Z,99291.53
2023-02-24T01:36:03.708Z,99270.91
2023-02-24T01:36:46.659Z,99280.63
2023-02-24T01:37:27.710Z,99283.56
2023-02-24T01:38:11.657Z,99278.63
2023-02-24T01:38:52.777Z,99275.41
2023-02-24T01:39:32.656Z,99262.13
2023-02-24T01:40:21.254Z,99258.13
2023-02-24T01:41:05.639Z,99266.00
2023-02-24T01:41:50.706Z,99273.09
2023-02-24T01:42:30.655Z,99283.09
2023-02-24T01:43:11.759Z,99258.88
2023-02-24T01:44:15.653Z,99280.56
2023-02-24T01:44:58.683Z,99276.31
2023-02-24T01:45:40.163Z,99274.47
2023-02-24T01:46:15.675Z,99272.03
2023-02-24T01:46:59.652Z,99276.72
2023-02-24T01:47:33.682Z,99252.50
2023-02-24T01:48:09.145Z,99263.00
2023-02-24T01:48:49.669Z,99252.25
2023-02-24T01:49:45.943Z,99273.63
2023-02-24T01:50:29.668Z,99249.44
2023-02-24T01:51:09.727Z,99262.06
2023-02-24T01:51:58.619Z,99252.41
2023-02-24T01:52:41.687Z,99253.25
2023-02-24T01:53:21.623Z,99252.75
2023-02-24T01:54:01.749Z,99245.78
2023-02-24T01:55:04.628Z,99245.31
2023-02-24T01:56:02.651Z,99241.94
2023-02-24T01:56:36.359Z,99237.91
2023-02-24T01:57:28.697Z,99238.91
2023-02-24T01:58:09.589Z,99231.44
2023-02-24T01:58:57.803Z,99230.81
2023-02-24T01:59:31.755Z,99248.84
2023-02-24T02:00:43.799Z,99256.63
2023-02-24T02:01:27.705Z,99249.16
2023-02-24T02:02:11.751Z,99242.00
2023-02-24T02:02:54.667Z,99234.22
2023-02-24T02:03:41.581Z,99224.34
2023-02-24T02:04:29.679Z,99251.03
2023-02-24T02:05:14.886Z,99233.84
2023-02-24T02:05:58.653Z,99245.69
2023-02-24T02:06:46.673Z,99235.53
2023-02-24T02:07:22.914Z,99225.84
2023-02-24T02:08:10.615Z,99242.06
2023-02-24T02:08:47.840Z,99237.22
2023-02-24T02:09:34.829Z,99221.06
2023-02-24T02:10:10.284Z,99228.56
2023-02-24T02:11:04.615Z,99231.25
2023-02-24T02:11:38.308Z,99238.94
2023-02-24T02:12:19.624Z,99233.84
2023-02-24T02:12:53.881Z,99230.28
2023-02-24T02:13:28.707Z,99238.84
2023-02-24T02:14:08.602Z,99220.97
2023-02-24T02:14:52.403Z,99242.94
2023-02-24T02:15:28.293Z,99212.59
2023-02-24T02:16:52.616Z,99241.94
2023-02-24T02:17:50.655Z,99224.63
2023-02-24T02:19:06.844Z,99218.75
2023-02-24T02:20:07.553Z,99222.72
2023-02-24T02:21:25.594Z,99227.56
2023-02-24T02:22:31.702Z,99223.41
2023-02-24T02:23:47.675Z,99224.97
2023-02-24T02:24:57.647Z,99217.56
2023-02-24T02:26:08.612Z,99206.13
2023-02-24T02:27:31.595Z,99229.06
2023-02-24T02:29:13.648Z,99226.38
2023-02-24T02:30:24.797Z,99224.97
2023-02-24T02:31:47.657Z,99221.69
2023-02-24T02:33:24.562Z,99221.19
2023-02-24T02:34:04.580Z,99224.03
2023-02-24T02:35:03.644Z,99219.94
2023-02-24T02:35:42.579Z,99209.63
2023-02-24T02:36:55.597Z,99216.19
2023-02-24T02:37:41.637Z,99210.91
2023-02-24T02:38:44.604Z,99211.00
2023-02-24T02:39:43.226Z,99209.00
2023-02-24T02:40:33.616Z,99213.84
2023-02-24T02:41:44.635Z,99210.84
2023-02-24T02:42:47.608Z,99205.38
2023-02-24T02:43:59.654Z,99198.59
2023-02-24T02:44:46.585Z,99194.88
2023-02-24T02:45:54.658Z,99205.69
2023-02-24T02:46:58.589Z,99183.84
2023-02-24T02:48:21.564Z,99195.72
2023-02-24T02:49:28.583Z,99186.97
2023-02-24T02:50:52.592Z,99182.91
2023-02-24T02:51:49.564Z,99194.44
2023-02-24T02:52:42.277Z,99186.53
2023-02-24T02:53:33.558Z,99189.94
2023-02-24T02:54:31.659Z,99187.94
2023-02-24T02:55:21.579Z,99187.38
2023-02-24T02:56:18.623Z,99178.66
2023-02-24T02:57:17.596Z,99195.25
2023-02-24T02:58:15.589Z,99199.47
2023-02-24T02:59:11.572Z,99170.44
2023-02-24T03:00:35.557Z,99193.19
2023-02-24T03:01:30.623Z,99179.44
2023-02-24T03:02:58.575Z,99180.28
2023-02-24T03:03:56.561Z,99178.75
2023-02-24T03:04:54.580Z,99190.03
2023-02-24T03:05:59.564Z,99175.19
2023-02-24T03:06:53.580Z,99170.34
2023-02-24T03:07:31.851Z,99187.31
2023-02-24T03:08:21.560Z,99183.25
2023-02-24T03:09:29.394Z,99177.97
2023-02-24T03:10:23.549Z,99165.88
2023-02-24T03:11:00.334Z,99157.41
2023-02-24T03:12:19.568Z,99183.47
2023-02-24T03:13:03.706Z,99167.94
2023-02-24T03:13:52.541Z,99180.34
2023-02-24T03:14:37.684Z,99163.25
2023-02-24T03:15:19.569Z,99168.88
2023-02-24T03:16:00.770Z,99160.09
2023-02-24T03:16:41.631Z,99155.00
2023-02-24T03:17:37.573Z,99178.19
2023-02-24T03:18:20.386Z,99140.59
2023-02-24T03:19:14.601Z,99168.06
2023-02-24T03:19:59.985Z,99179.25
2023-02-24T03:20:53.541Z,99171.03
2023-02-24T03:21:48.093Z,99169.41
2023-02-24T03:22:43.554Z,99149.38
2023-02-24T03:23:35.123Z,99160.94
2023-02-24T03:24:23.543Z,99166.00
2023-02-24T03:24:59.370Z,99170.56
2023-02-24T03:26:06.605Z,99174.31
2023-02-24T03:26:50.029Z,99168.88
2023-02-24T03:27:29.100Z,99170.72
2023-02-24T03:28:22.606Z,99146.00
2023-02-24T03:29:36.609Z,99157.81
2023-02-24T03:30:29.914Z,99159.31
2023-02-24T03:36:29.568Z,99157.59
2023-02-24T03:37:03.715Z,99165.41
2023-02-24T03:37:50.564Z,99149.38
2023-02-24T03:38:24.408Z,99168.41
2023-02-24T03:39:12.647Z,99140.28
2023-02-24T03:39:47.642Z,99158.44
2023-02-24T03:40:36.545Z,99138.63
2023-02-24T03:41:12.441Z,99160.94
2023-02-24T03:42:18.570Z,99157.59
2023-02-24T03:42:55.597Z,99146.25
2023-02-24T03:43:34.161Z,99149.44
2023-02-24T03:44:17.528Z,99146.72
2023-02-24T03:44:52.674Z,99160.94
2023-02-24T03:45:27.821Z,99150.38
2023-02-24T03:46:07.545Z,99154.78
2023-02-24T03:46:59.990Z,99141.44
2023-02-24T03:47:41.546Z,99141.34
2023-02-24T04:00:23.505Z,99152.09
2023-02-24T04:02:04.491Z,99152.75
2023-02-24T04:03:00.471Z,99131.13
2023-02-24T04:04:58.215Z,99144.63
2023-02-24T04:05:48.477Z,99122.06
2023-02-24T04:06:32.836Z,99138.88
2023-02-24T04:07:59.479Z,99140.09
2023-02-24T04:08:46.621Z,99129.47
2023-02-24T04:09:43.689Z,99136.25
2023-02-24T04:11:19.739Z,99133.41
2023-02-24T04:12:20.591Z,99138.88
2023-02-24T04:30:38.591Z,99117.53
2023-02-24T04:31:23.940Z,99120.09
2023-02-24T04:32:10.714Z,99099.84
2023-02-24T04:32:51.473Z,99113.25
2023-02-24T04:33:31.535Z,99077.03
2023-02-24T04:34:15.443Z,99106.88
2023-02-24T04:35:04.461Z,99114.38
2023-02-24T04:35:45.514Z,99110.03
2023-02-24T04:36:27.426Z,99106.25
2023-02-24T04:37:08.512Z,99112.22
2023-02-24T04:37:51.452Z,99114.31
2023-02-24T04:38:31.457Z,99106.38
2023-02-24T04:39:11.420Z,99104.16
2023-02-24T04:39:52.548Z,99094.69
2023-02-24T04:40:33.445Z,99094.81
2023-02-24T04:41:19.172Z,99102.53
2023-02-24T04:41:59.440Z,99108.53
2023-02-24T04:42:46.533Z,99094.09
2023-02-24T04:43:26.449Z,99096.06
2023-02-24T04:44:07.483Z,99094.59
2023-02-24T04:44:49.411Z,99088.94
2023-02-24T04:45:40.438Z,99101.56
2023-02-24T04:46:14.521Z,99105.28
2023-02-24T04:47:03.453Z,99098.28
2023-02-24T04:47:46.109Z,99091.91
2023-02-24T04:48:27.424Z,99091.94
2023-02-24T04:49:07.472Z,99098.56
2023-02-24T04:49:47.415Z,99095.41
2023-02-24T04:50:31.533Z,99092.75
2023-02-24T04:51:13.436Z,99093.97
2023-02-24T04:51:53.449Z,99080.50
2023-02-24T04:52:34.435Z,99098.41
2023-02-24T04:53:26.808Z,99092.53
2023-02-24T04:54:06.412Z,99095.56
2023-02-24T04:54:46.497Z,99070.53
2023-02-24T04:55:28.411Z,99087.16
2023-02-24T04:56:11.548Z,99097.72
2023-02-24T04:56:59.221Z,99048.75
2023-02-24T04:57:39.477Z,99098.63
2023-02-24T04:58:26.380Z,99093.84
2023-02-24T04:59:06.523Z,99094.69
2023-02-24T05:02:11.444Z,99093.22
2023-02-24T05:28:38.390Z,99063.06
2023-02-24T05:29:19.428Z,99068.47
2023-02-24T05:30:02.387Z,99059.44
2023-02-24T05:30:42.557Z,99037.94
2023-02-24T05:31:32.488Z,99059.63
2023-02-24T05:32:13.185Z,99062.75
2023-02-24T05:32:53.390Z,99035.00
2023-02-24T05:33:34.738Z,99043.47
2023-02-24T05:34:15.434Z,99047.50
2023-02-24T05:34:55.425Z,99059.03
2023-02-24T05:35:38.351Z,99044.44
2023-02-24T05:36:23.495Z,99061.91
2023-02-24T05:37:06.348Z,99048.88
2023-02-24T05:37:47.507Z,99030.88
2023-02-24T05:38:27.380Z,99040.72
2023-02-24T05:39:07.803Z,99062.34
2023-02-24T05:39:48.399Z,99045.66
2023-02-24T05:40:28.433Z,99049.97
2023-02-24T05:41:14.353Z,99056.50
2023-02-24T05:41:56.868Z,99040.84
2023-02-24T05:42:41.351Z,99042.84
2023-02-24T05:43:23.983Z,99045.50
2023-02-24T05:44:08.409Z,99056.78
2023-02-24T05:44:55.397Z,99060.13
2023-02-24T05:45:30.322Z,99070.56
2023-02-24T05:46:20.387Z,99046.47
2023-02-24T05:46:59.941Z,99048.22
2023-02-24T05:47:47.389Z,99036.75
2023-02-24T05:48:21.129Z,99046.56
2023-02-24T05:49:21.369Z,99044.09
2023-02-24T05:50:03.372Z,99045.59
2023-02-24T05:50:46.843Z,99050.25
2023-02-24T05:51:28.481Z,99054.81
2023-02-24T05:52:14.137Z,99062.84
2023-02-24T05:52:55.356Z,99060.16
2023-02-24T05:53:35.936Z,99051.31
2023-02-24T05:54:19.354Z,99057.84
2023-02-24T05:55:02.193Z,99045.59
2023-02-24T05:55:43.354Z,99052.16
2023-02-24T05:56:23.645Z,99054.06
2023-02-24T05:57:13.386Z,99055.09
2023-02-24T05:57:56.586Z,99044.91
2023-02-24T05:58:36.370Z,99040.50
2023-02-24T05:59:21.348Z,99055.59
2023-02-24T06:00:02.361Z,99046.44
2023-02-24T06:00:52.347Z,99050.38
2023-02-24T06:01:30.127Z,99035.63
2023-02-24T06:02:21.422Z,99059.69
2023-02-24T06:03:06.325Z,99030.06
2023-02-24T06:03:54.340Z,99036.75
2023-02-24T06:04:39.348Z,99040.38
2023-02-24T06:05:35.341Z,99045.56
2023-02-24T06:06:16.396Z,99060.91
2023-02-24T06:06:56.452Z,99055.94
2023-02-24T06:07:41.354Z,99059.94
2023-02-24T06:08:24.296Z,99051.25
2023-02-24T06:09:08.320Z,99061.63
2023-02-24T06:09:53.523Z,99042.75
2023-02-24T06:10:34.891Z,99044.47
2023-02-24T06:11:23.916Z,99042.09
2023-02-24T06:11:58.290Z,99037.47
2023-02-24T06:12:48.370Z,99058.31
2023-02-24T06:13:22.055Z,99053.19
2023-02-24T06:14:09.349Z,99048.72
2023-02-24T06:14:44.653Z,99058.03
2023-02-24T06:15:31.345Z,99054.94
2023-02-24T06:16:06.867Z,99058.41
2023-02-24T06:16:49.372Z,99044.78
2023-02-24T06:17:25.667Z,99058.03
2023-02-24T06:18:03.036Z,99036.53
2023-02-24T06:18:44.318Z,99036.25
2023-02-24T06:19:20.675Z,99049.09
2023-02-24T06:19:55.076Z,99064.34
2023-02-24T06:20:39.336Z,99051.41
2023-02-24T06:21:13.460Z,99053.47
2023-02-24T06:21:47.034Z,99043.72
2023-02-24T06:22:34.323Z,99049.00
2023-02-24T06:23:08.830Z,99048.94
2023-02-24T06:23:43.239Z,99055.22
2023-02-24T06:24:25.331Z,99054.94
2023-02-24T06:25:01.543Z,99044.16
2023-02-24T06:25:35.034Z,99046.47
2023-02-24T06:26:25.330Z,99046.94
2023-02-24T06:27:02.553Z,99050.78
2023-02-24T06:27:45.350Z,99057.25
2023-02-24T06:28:25.359Z,99049.63
2023-02-24T06:29:06.390Z,99047.47
2023-02-24T06:29:46.419Z,99043.84
2023-02-24T06:30:28.365Z,99036.34
2023-02-24T06:31:11.392Z,99056.91
2023-02-24T06:31:55.461Z,99041.00
2023-02-24T06:32:36.238Z,99064.09
2023-02-24T06:33:17.344Z,99037.69
2023-02-24T06:33:57.384Z,99060.72
2023-02-24T06:34:38.332Z,99069.94
2023-02-24T06:35:18.388Z,99063.25
2023-02-24T06:36:00.548Z,99056.84
2023-02-24T06:36:43.036Z,99056.91
2023-02-24T06:37:24.334Z,99056.69
2023-02-24T06:38:06.486Z,99039.25
2023-02-24T06:38:48.398Z,99038.88
2023-02-24T06:39:28.412Z,99053.75
2023-02-24T06:40:20.346Z,99061.94
2023-02-24T06:41:10.812Z,99050.38
2023-02-24T06:41:52.380Z,99060.66
2023-02-24T06:42:32.398Z,99047.22
2023-02-24T06:43:12.350Z,99067.81
2023-02-24T06:44:00.358Z,99057.97
2023-02-24T06:44:36.814Z,99069.22
2023-02-24T06:45:24.362Z,99060.72
2023-02-24T06:45:58.135Z,99066.06
2023-02-24T06:46:45.322Z,99063.03
2023-02-24T06:47:19.067Z,99063.25
2023-02-24T06:48:07.314Z,99064.44
2023-02-24T06:48:41.627Z,99065.53
2023-02-24T06:49:21.330Z,99059.16
2023-02-24T06:49:56.383Z,99061.75
2023-02-24T06:50:30.976Z,99051.19
2023-02-24T06:51:20.584Z,99076.34
2023-02-24T06:51:55.408Z,99057.97
2023-02-24T06:52:30.849Z,99060.72
2023-02-24T06:53:16.330Z,99059.75
2023-02-24T06:53:50.387Z,99056.84
2023-02-24T06:54:35.315Z,99070.25
2023-02-24T06:55:26.405Z,99060.88
2023-02-24T06:56:22.343Z,99057.78
2023-02-24T06:57:05.410Z,99047.56
2023-02-24T06:57:45.310Z,99056.63
2023-02-24T06:58:26.645Z,99068.63
2023-02-24T06:59:07.295Z,99039.63
2023-02-24T06:59:55.333Z,99051.84
2023-02-24T07:00:40.640Z,99061.41
2023-02-24T07:01:35.321Z,99068.53
2023-02-24T07:02:10.633Z,99057.69
2023-02-24T07:02:57.318Z,99048.75
2023-02-24T07:03:39.592Z,99048.47
2023-02-24T07:04:28.930Z,99053.19
2023-02-24T07:05:12.329Z,99039.50
2023-02-24T07:06:10.904Z,99082.44
2023-02-24T07:06:58.320Z,99071.28
2023-02-24T07:07:39.924Z,99071.59
2023-02-24T07:08:20.275Z,99072.63
2023-02-24T07:09:00.452Z,99080.84
2023-02-24T07:09:42.660Z,99048.56
2023-02-24T07:10:31.339Z,99053.88
2023-02-24T07:11:07.568Z,99061.50
2023-02-24T07:11:58.328Z,99069.75
2023-02-24T07:12:34.084Z,99050.50
2023-02-24T07:13:22.287Z,99083.34
2023-02-24T07:13:57.498Z,99067.66
2023-02-24T07:14:45.319Z,99070.44
2023-02-24T07:15:18.978Z,99053.09
2023-02-24T07:15:59.308Z,99033.28
2023-02-24T07:16:35.176Z,99063.03
2023-02-24T07:17:09.074Z,99065.28
2023-02-24T07:17:49.287Z,99040.06
2023-02-24T07:18:26.558Z,99058.81
2023-02-24T07:19:04.866Z,99050.75
2023-02-24T07:19:45.279Z,99066.38
2023-02-24T07:20:25.349Z,99060.66
2023-02-24T07:21:11.354Z,99061.53
2023-02-24T07:21:59.720Z,99047.63
2023-02-24T07:22:41.287Z,99030.50
2023-02-24T07:23:23.388Z,99058.34
2023-02-24T07:24:04.292Z,99050.38
2023-02-24T07:24:46.283Z,99047.00
2023-02-24T07:25:39.288Z,99060.88
2023-02-24T07:26:31.292Z,99047.97
2023-02-24T07:27:07.785Z,99037.22
2023-02-24T07:27:54.261Z,99047.84
2023-02-24T07:28:27.971Z,99070.03
2023-02-24T07:29:16.269Z,99059.16
2023-02-24T07:29:53.917Z,99062.69
2023-02-24T07:30:43.419Z,99044.25
2023-02-24T07:31:21.004Z,99051.06
2023-02-24T07:32:03.733Z,99054.00
2023-02-24T07:32:40.594Z,99064.44
2023-02-24T07:33:15.098Z,99060.91
2023-02-24T07:33:57.295Z,99051.06
2023-02-24T07:34:33.571Z,99032.34
2023-02-24T07:35:07.602Z,99035.44
2023-02-24T07:35:49.287Z,99047.34
2023-02-24T07:36:24.382Z,99056.97
2023-02-24T07:36:58.330Z,99045.09
2023-02-24T07:37:39.278Z,99041.38
2023-02-24T07:38:17.300Z,99035.63
2023-02-24T07:38:55.127Z,99048.50
2023-02-24T07:39:35.255Z,99062.75
2023-02-24T07:40:09.462Z,99059.50
2023-02-24T07:40:46.418Z,99050.47
2023-02-24T07:41:31.260Z,99047.44
2023-02-24T07:42:05.374Z,99036.81
2023-02-24T07:42:39.072Z,99050.34
2023-02-24T07:43:22.321Z,99038.63
2023-02-24T07:43:59.604Z,99051.59
2023-02-24T07:44:33.947Z,99051.09
2023-02-24T07:45:16.344Z,99037.72
2023-02-24T07:45:50.376Z,99034.72
2023-02-24T07:46:27.948Z,99021.78
2023-02-24T07:47:14.236Z,99050.38
2023-02-24T07:47:48.304Z,99032.50
2023-02-24T07:48:21.927Z,99039.81
2023-02-24T07:49:06.260Z,99042.28
2023-02-24T07:49:41.321Z,99031.28
2023-02-24T07:50:20.225Z,99012.88
2023-02-24T07:51:01.260Z,99030.59
2023-02-24T07:51:35.318Z,99017.31
2023-02-24T07:52:11.425Z,99017.25
2023-02-24T07:52:54.276Z,99040.28
2023-02-24T07:53:28.411Z,99027.75
2023-02-24T07:54:03.410Z,99034.28
2023-02-24T07:54:45.259Z,99032.31
2023-02-24T07:55:19.320Z,99033.16
2023-02-24T07:55:53.516Z,99045.00
2023-02-24T07:56:35.266Z,99032.91
2023-02-24T07:57:13.565Z,99035.38
2023-02-24T07:57:48.463Z,99022.28
2023-02-24T07:58:30.274Z,99038.78
2023-02-24T07:59:15.422Z,99039.44
2023-02-24T07:59:55.246Z,99033.84
2023-02-24T08:00:56.272Z,99036.63
2023-02-24T08:01:45.270Z,99030.28
2023-02-24T08:02:26.757Z,99046.47
2023-02-24T08:03:08.270Z,99025.81
2023-02-24T08:03:51.921Z,99025.53
2023-02-24T08:04:37.280Z,99040.53
2023-02-24T08:05:18.320Z,99004.78
2023-02-24T08:05:53.793Z,99034.44
2023-02-24T08:06:41.430Z,99030.56
2023-02-24T08:07:22.223Z,99041.50
2023-02-24T08:07:57.030Z,99016.81
2023-02-24T08:08:30.932Z,99035.47
2023-02-24T08:09:38.269Z,99039.19
2023-02-24T08:10:30.246Z,99008.72
2023-02-24T08:11:10.414Z,99012.69
2023-02-24T08:12:03.226Z,99012.31
2023-02-24T08:12:42.695Z,99019.84
2023-02-24T08:13:30.218Z,99028.25
2023-02-24T08:14:10.947Z,99023.47
2023-02-24T08:15:06.286Z,99030.00
2023-02-24T08:15:46.282Z,99015.97
2023-02-24T08:16:39.353Z,99020.88
2023-02-24T08:17:26.616Z,99010.88
2023-02-24T08:17:47.429Z,99013.16
2023-02-24T08:18:28.210Z,99039.97
2023-02-24T08:19:13.015Z,99009.34
2023-02-24T08:20:15.230Z,99023.97
2023-02-24T08:21:11.237Z,99005.91
2023-02-24T08:22:25.322Z,99014.66
2023-02-24T08:23:20.295Z,99020.38
2023-02-24T08:24:14.205Z,99008.06
2023-02-24T08:25:13.221Z,99019.59
2023-02-24T08:26:07.241Z,99021.94
2023-02-24T08:26:51.246Z,99008.28
2023-02-24T08:27:38.980Z,99022.94
2023-02-24T08:28:20.211Z,99018.56
2023-02-24T08:29:00.354Z,99006.38
2023-02-24T08:29:46.212Z,99028.75
2023-02-24T08:30:29.909Z,99018.25
2023-02-24T08:31:11.326Z,99024.91
2023-02-24T08:31:47.439Z,99012.50
2023-02-24T08:32:30.324Z,99006.34
2023-02-24T08:33:18.274Z,99006.44
2023-02-24T08:34:02.248Z,99022.13
2023-02-24T08:34:45.292Z,99021.81
2023-02-24T08:35:29.214Z,99017.41
2023-02-24T08:36:10.269Z,99020.03
2023-02-24T08:36:55.275Z,99000.09
2023-02-24T08:37:47.284Z,99009.97
2023-02-24T08:38:48.188Z,99018.03
2023-02-24T08:39:43.211Z,99000.28
2023-02-24T08:40:43.227Z,99002.84
2023-02-24T08:41:51.233Z,99003.28
2023-02-24T08:42:45.187Z,99004.38
2023-02-24T08:43:41.232Z,99002.78
2023-02-24T08:44:22.873Z,98996.69
2023-02-24T08:45:04.173Z,98991.44
2023-02-24T08:45:44.515Z,98989.75
2023-02-24T08:46:32.218Z,98973.63
2023-02-24T08:47:13.802Z,98969.59
2023-02-24T08:47:55.285Z,98980.94
2023-02-24T08:48:42.403Z,98997.63
2023-02-24T08:49:24.194Z,98994.53
2023-02-24T08:50:07.091Z,98976.00
2023-02-24T08:50:52.193Z,98990.00
2023-02-24T08:51:43.633Z,98996.38
2023-02-24T08:52:23.199Z,98997.50
2023-02-24T08:53:12.208Z,98993.00
2023-02-24T08:54:38.204Z,98980.47
2023-02-24T08:55:37.215Z,98998.72
2023-02-24T08:56:31.174Z,99001.16
2023-02-24T08:57:25.182Z,98986.09
2023-02-24T08:58:24.241Z,98982.25
2023-02-24T08:59:35.157Z,98981.13
2023-02-24T09:00:49.433Z,98980.28
2023-02-24T09:02:04.708Z,98967.81
2023-02-24T09:03:02.184Z,98957.94
2023-02-24T09:03:52.204Z,98964.28
2023-02-24T09:04:26.297Z,98961.91
2023-02-24T09:05:17.204Z,98976.19
2023-02-24T09:05:54.677Z,98976.78
2023-02-24T09:06:51.287Z,98983.59
2023-02-24T09:07:40.580Z,98984.69
2023-02-24T09:08:30.191Z,98974.97
2023-02-24T09:09:27.205Z,98987.34
2023-02-24T09:10:29.187Z,98983.59
2023-02-24T09:11:29.160Z,98975.16
2023-02-24T09:12:31.180Z,98963.81
2023-02-24T09:13:25.238Z,98984.13
2023-02-24T09:14:28.264Z,98974.72
2023-02-24T09:15:11.233Z,98969.09
2023-02-24T09:15:51.281Z,98954.41
2023-02-24T09:16:32.233Z,98955.84
2023-02-24T09:17:15.018Z,98955.53
2023-02-24T09:18:08.176Z,98966.63
2023-02-24T09:19:10.196Z,98964.06
2023-02-24T09:19:58.179Z,98964.13
2023-02-24T09:20:57.183Z,98960.06
2023-02-24T09:22:00.077Z,98956.66
2023-02-24T09:23:04.179Z,98945.44
2023-02-24T09:23:45.982Z,98949.38
2023-02-24T09:24:33.185Z,98963.53
2023-02-24T09:25:24.088Z,98962.31
2023-02-24T09:26:17.206Z,98956.31
2023-02-24T09:26:58.410Z,98978.47
2023-02-24T09:27:49.184Z,98948.38
2023-02-24T09:28:25.345Z,98968.59
2023-02-24T09:29:32.189Z,98978.47
2023-02-24T09:30:08.060Z,98967.69
2023-02-24T09:31:01.204Z,98961.03
2023-02-24T09:31:47.448Z,98956.66
2023-02-24T09:32:41.389Z,98943.06
2023-02-24T09:33:46.176Z,98943.88
2023-02-24T09:34:40.151Z,98951.56
2023-02-24T09:35:37.154Z,98959.06
2023-02-24T09:36:37.141Z,98951.97
2023-02-24T09:37:33.230Z,98957.53
2023-02-24T09:38:16.663Z,98955.59
2023-02-24T09:39:09.192Z,98947.16
2023-02-24T09:39:58.315Z,98950.94
2023-02-24T09:40:46.190Z,98922.16
2023-02-24T09:41:53.853Z,98948.31
2023-02-24T09:42:53.178Z,98954.84
2023-02-24T09:43:44.132Z,98939.34
2023-02-24T09:44:25.134Z,98946.81
2023-02-24T09:45:14.196Z,98945.22
2023-02-24T09:46:21.262Z,98955.63
2023-02-24T09:47:31.208Z,98932.13
2023-02-24T09:48:27.200Z,98938.31
2023-02-24T09:49:31.120Z,98939.38
2023-02-24T09:51:02.775Z,98944.00
2023-02-24T09:52:07.152Z,98915.09
2023-02-24T09:53:20.132Z,98910.31
2023-02-24T09:54:03.133Z,98923.22
2023-02-24T09:54:53.082Z,98916.47
2023-02-24T09:56:07.212Z,98927.03
2023-02-24T09:57:08.142Z,98918.06
2023-02-24T09:58:43.000Z,98930.69
2023-02-24T10:00:23.159Z,98923.53
2023-02-24T10:01:20.941Z,98936.91
2023-02-24T10:02:46.168Z,98931.63
2023-02-24T10:03:42.219Z,98934.41
2023-02-24T10:05:13.119Z,98942.28
2023-02-24T10:06:19.206Z,98944.28
2023-02-24T10:07:19.153Z,98953.16
2023-02-24T10:08:15.137Z,98921.28
2023-02-24T10:09:19.148Z,98945.28
2023-02-24T10:10:34.364Z,98935.59
2023-02-24T10:11:39.154Z,98936.84
2023-02-24T10:12:48.150Z,98931.91
2023-02-24T10:13:44.119Z,98929.41
2023-02-24T10:15:26.144Z,98930.34
2023-02-24T10:16:30.127Z,98924.44
2023-02-24T10:17:29.141Z,98921.75
2023-02-24T10:18:48.502Z,98921.13
2023-02-24T10:19:36.104Z,98894.25
2023-02-24T10:20:47.454Z,98927.75
2023-02-24T10:21:56.304Z,98912.63
2023-02-24T10:22:58.142Z,98923.75
2023-02-24T10:24:21.133Z,98931.66
2023-02-24T10:25:50.144Z,98924.84
2023-02-24T10:27:01.142Z,98904.16
2023-02-24T10:28:20.309Z,98904.41
2023-02-24T10:29:29.123Z,98915.16
2023-02-24T10:30:47.193Z,98911.84
2023-02-24T10:32:04.347Z,98908.63
2023-02-24T10:33:10.107Z,98890.47
2023-02-24T10:33:52.293Z,98898.38
2023-02-24T10:34:34.298Z,98897.53
2023-02-24T10:35:32.070Z,98880.72
2023-02-24T10:36:17.224Z,98889.34
2023-02-24T10:36:58.066Z,98885.97
2023-02-24T10:37:38.158Z,98885.47
2023-02-24T10:38:19.108Z,98889.13
2023-02-24T10:39:15.107Z,98868.16
2023-02-24T10:40:24.080Z,98877.81